Aérodrome :
LOGIN :

S'inscrire | Disclaimer

   EN    FR    IT 

 










Légende :    VFR   VFR Marginal   IFR   IFR Intensif   IFR Très Intensif
Visi : 
Plafond : 
>= 8 km
>= 3000ft
5 à 8 km
1000 à 3000 ft
1500m à 5 km
500 à 1000 ft
800 à 1500m
200 à 500 ft
< 800m
< 200 ft
Symboles :   Orages  Brouillard  Fortes neiges  Fortes précipitations  Vent > 20 kt
SIGMETs :   Divers  Orages  Givrage  Turbulence  Onde Orograph.  Cendres Volcan.







- Altitude de l'aérodrome : 392 ft
- Code IATA : CDG
- Voir les cartes d'approche


LFPG - Paris-Aeroport Charles De Gaulle

DERNIER METAR :
  • 231630Z 21009KT 2500 -DZRA BKN004 13/12 Q1022 NOSIG

METARs EXPIRÉS :
  • 231600Z 21008KT 2500 -DZRA BKN003 13/12 Q1022 NOSIG
  • 231530Z 21008KT 190V260 3500 -RADZ BKN004 13/12 Q1022 NOSIG
  • 231500Z 21008KT 3500 -RADZ BKN005 SCT015 BKN038 13/12 Q1022 NOSIG
  • 231430Z 21008KT 3500 -RADZ SCT006 BKN015 BKN020 13/12 Q1022 NOSIG
  • 231400Z 23010KT 200V260 4000 -RA FEW012 BKN019 13/11 Q1023 NOSIG

TAF AMD TAF LFPG
Valide du 23 à 14h jusqu'au 24 à 18h UTC


231443Z 2314/2418 22010KT 9999 BKN012
TEMPO 2314/2317 4000 -DZRA BKN004 BKN010
TEMPO 2317/2411 4000 -DZ BKN008
PROB40
TEMPO 2322/2410 2000 DZ OVC004 TX17/2415Z TN13/2400Z
ATIS : +33 1 48 62 10 92
Pas de NOTAMs connus pour ce terrain.



MET'MAP, la Météo Aéronautique d'un coup d'oeil ! - Copyright ORBIFLY Décembre 2007 - Disclaimer

ORBIFLY MET'MAP TEAM :

Programmation & Développement : Alexandra Zaïnal
Conception & Développement : Baudouin d'Aumeries
Co-Programmation & Développement : Marc-Olivier Méhu
Soutien technique & logistique : Manuel Goepfert

Contact : metmap@orbifly.com




SOURCES & CREDITS :

   NOAA